sensor_id;sensor_type;location;lat;lon;timestamp;temperature;humidity
67769;DHT22;54569;52.018;5.584;2024-02-15T00:01:58;12.60;99.90
67769;DHT22;54569;52.018;5.584;2024-02-15T00:04:24;12.60;99.90
67769;DHT22;54569;52.018;5.584;2024-02-15T00:06:50;12.60;99.90
67769;DHT22;54569;52.018;5.584;2024-02-15T00:09:16;12.60;99.90
67769;DHT22;54569;52.018;5.584;2024-02-15T00:11:41;12.60;99.90
67769;DHT22;54569;52.018;5.584;2024-02-15T00:14:07;12.60;99.90
67769;DHT22;54569;52.018;5.584;2024-02-15T00:16:34;12.70;99.90
67769;DHT22;54569;52.018;5.584;2024-02-15T00:19:01;12.60;99.90
67769;DHT22;54569;52.018;5.584;2024-02-15T00:21:27;12.70;99.90
67769;DHT22;54569;52.018;5.584;2024-02-15T00:23:53;12.70;99.90
67769;DHT22;54569;52.018;5.584;2024-02-15T00:26:21;12.60;99.90
67769;DHT22;54569;52.018;5.584;2024-02-15T00:28:47;12.60;99.90
67769;DHT22;54569;52.018;5.584;2024-02-15T00:31:14;12.70;99.90
67769;DHT22;54569;52.018;5.584;2024-02-15T00:33:40;12.60;99.90
67769;DHT22;54569;52.018;5.584;2024-02-15T00:36:06;12.70;99.90
67769;DHT22;54569;52.018;5.584;2024-02-15T00:38:32;12.60;99.90
67769;DHT22;54569;52.018;5.584;2024-02-15T00:40:58;12.60;99.90
67769;DHT22;54569;52.018;5.584;2024-02-15T00:43:28;12.60;99.90
67769;DHT22;54569;52.018;5.584;2024-02-15T00:45:54;12.60;99.90
67769;DHT22;54569;52.018;5.584;2024-02-15T00:48:20;12.60;99.90
67769;DHT22;54569;52.018;5.584;2024-02-15T00:51:01;12.60;99.90
67769;DHT22;54569;52.018;5.584;2024-02-15T00:53:29;12.70;99.90
67769;DHT22;54569;52.018;5.584;2024-02-15T00:55:55;12.60;99.90
67769;DHT22;54569;52.018;5.584;2024-02-15T00:58:21;12.60;99.90
67769;DHT22;54569;52.018;5.584;2024-02-15T01:00:47;12.70;99.90
67769;DHT22;54569;52.018;5.584;2024-02-15T01:03:13;12.60;99.90
67769;DHT22;54569;52.018;5.584;2024-02-15T01:05:39;12.60;99.90
67769;DHT22;54569;52.018;5.584;2024-02-15T01:08:05;12.60;99.90
67769;DHT22;54569;52.018;5.584;2024-02-15T01:10:31;12.60;99.90
67769;DHT22;54569;52.018;5.584;2024-02-15T01:12:56;12.60;99.90
67769;DHT22;54569;52.018;5.584;2024-02-15T01:15:22;12.60;99.90
67769;DHT22;54569;52.018;5.584;2024-02-15T01:17:48;12.60;99.90
67769;DHT22;54569;52.018;5.584;2024-02-15T01:20:14;12.60;99.90
67769;DHT22;54569;52.018;5.584;2024-02-15T01:22:39;12.60;99.90
67769;DHT22;54569;52.018;5.584;2024-02-15T01:25:05;12.60;99.90
67769;DHT22;54569;52.018;5.584;2024-02-15T01:27:32;12.60;99.90
67769;DHT22;54569;52.018;5.584;2024-02-15T01:29:59;12.60;99.90
67769;DHT22;54569;52.018;5.584;2024-02-15T01:32:25;12.60;99.90
67769;DHT22;54569;52.018;5.584;2024-02-15T01:34:51;12.60;99.90
67769;DHT22;54569;52.018;5.584;2024-02-15T01:37:20;12.60;99.90
67769;DHT22;54569;52.018;5.584;2024-02-15T01:39:46;12.60;99.90
67769;DHT22;54569;52.018;5.584;2024-02-15T01:42:12;12.60;99.90
67769;DHT22;54569;52.018;5.584;2024-02-15T01:44:40;12.60;99.90
67769;DHT22;54569;52.018;5.584;2024-02-15T01:47:07;12.60;99.90
67769;DHT22;54569;52.018;5.584;2024-02-15T01:49:34;12.60;99.90
67769;DHT22;54569;52.018;5.584;2024-02-15T01:52:01;12.60;99.90
67769;DHT22;54569;52.018;5.584;2024-02-15T01:54:28;12.60;99.90
67769;DHT22;54569;52.018;5.584;2024-02-15T01:56:54;12.60;99.90
67769;DHT22;54569;52.018;5.584;2024-02-15T01:59:23;12.60;99.90
67769;DHT22;54569;52.018;5.584;2024-02-15T02:01:49;12.60;99.90
67769;DHT22;54569;52.018;5.584;2024-02-15T02:04:15;12.60;99.90
67769;DHT22;54569;52.018;5.584;2024-02-15T02:06:41;12.60;99.90
67769;DHT22;54569;52.018;5.584;2024-02-15T02:09:11;12.60;99.90
67769;DHT22;54569;52.018;5.584;2024-02-15T02:11:42;12.60;99.90
67769;DHT22;54569;52.018;5.584;2024-02-15T02:14:10;12.60;99.90
67769;DHT22;54569;52.018;5.584;2024-02-15T02:16:37;12.60;99.90
67769;DHT22;54569;52.018;5.584;2024-02-15T02:19:05;12.60;99.90
67769;DHT22;54569;52.018;5.584;2024-02-15T02:21:37;12.60;99.90
67769;DHT22;54569;52.018;5.584;2024-02-15T02:24:14;12.60;99.90
67769;DHT22;54569;52.018;5.584;2024-02-15T02:26:43;12.60;99.90
67769;DHT22;54569;52.018;5.584;2024-02-15T02:29:09;12.60;99.90
67769;DHT22;54569;52.018;5.584;2024-02-15T02:31:36;12.60;99.90
67769;DHT22;54569;52.018;5.584;2024-02-15T02:34:02;12.60;99.90
67769;DHT22;54569;52.018;5.584;2024-02-15T02:36:29;12.60;99.90
67769;DHT22;54569;52.018;5.584;2024-02-15T02:38:55;12.60;99.90
67769;DHT22;54569;52.018;5.584;2024-02-15T02:41:26;12.50;99.90
67769;DHT22;54569;52.018;5.584;2024-02-15T02:43:52;12.50;99.90
67769;DHT22;54569;52.018;5.584;2024-02-15T02:46:17;12.50;99.90
67769;DHT22;54569;52.018;5.584;2024-02-15T02:48:43;12.50;99.90
67769;DHT22;54569;52.018;5.584;2024-02-15T02:51:09;12.50;99.90
67769;DHT22;54569;52.018;5.584;2024-02-15T02:53:35;12.40;99.90
67769;DHT22;54569;52.018;5.584;2024-02-15T02:56:02;12.40;99.90
67769;DHT22;54569;52.018;5.584;2024-02-15T02:58:27;12.40;99.90
67769;DHT22;54569;52.018;5.584;2024-02-15T03:00:54;12.40;99.90
67769;DHT22;54569;52.018;5.584;2024-02-15T03:03:20;12.40;99.90
67769;DHT22;54569;52.018;5.584;2024-02-15T03:05:48;12.40;99.90
67769;DHT22;54569;52.018;5.584;2024-02-15T03:08:14;12.40;99.90
67769;DHT22;54569;52.018;5.584;2024-02-15T03:10:43;12.40;99.90
67769;DHT22;54569;52.018;5.584;2024-02-15T03:13:09;12.40;99.90
67769;DHT22;54569;52.018;5.584;2024-02-15T03:15:35;12.40;99.90
67769;DHT22;54569;52.018;5.584;2024-02-15T03:18:02;12.40;99.90
67769;DHT22;54569;52.018;5.584;2024-02-15T03:20:38;12.40;99.90
67769;DHT22;54569;52.018;5.584;2024-02-15T03:23:04;12.40;99.90
67769;DHT22;54569;52.018;5.584;2024-02-15T03:25:30;12.40;99.90
67769;DHT22;54569;52.018;5.584;2024-02-15T03:27:57;12.40;99.90
67769;DHT22;54569;52.018;5.584;2024-02-15T03:30:27;12.40;99.90
67769;DHT22;54569;52.018;5.584;2024-02-15T03:32:55;12.40;99.90
67769;DHT22;54569;52.018;5.584;2024-02-15T03:35:23;12.40;99.90
67769;DHT22;54569;52.018;5.584;2024-02-15T03:37:50;12.40;99.90
67769;DHT22;54569;52.018;5.584;2024-02-15T03:40:22;12.40;99.90
67769;DHT22;54569;52.018;5.584;2024-02-15T03:42:53;12.40;99.90
67769;DHT22;54569;52.018;5.584;2024-02-15T03:45:19;12.40;99.90
67769;DHT22;54569;52.018;5.584;2024-02-15T03:47:46;12.40;99.90
67769;DHT22;54569;52.018;5.584;2024-02-15T03:50:12;12.40;99.90
67769;DHT22;54569;52.018;5.584;2024-02-15T03:52:40;12.40;99.90
67769;DHT22;54569;52.018;5.584;2024-02-15T03:55:07;12.40;99.90
67769;DHT22;54569;52.018;5.584;2024-02-15T03:57:33;12.40;99.90
67769;DHT22;54569;52.018;5.584;2024-02-15T03:59:59;12.40;99.90
67769;DHT22;54569;52.018;5.584;2024-02-15T04:02:25;12.30;99.90
67769;DHT22;54569;52.018;5.584;2024-02-15T04:04:56;12.30;99.90
67769;DHT22;54569;52.018;5.584;2024-02-15T04:07:22;12.30;99.90
67769;DHT22;54569;52.018;5.584;2024-02-15T04:09:55;12.30;99.90
67769;DHT22;54569;52.018;5.584;2024-02-15T04:12:20;12.20;99.90
67769;DHT22;54569;52.018;5.584;2024-02-15T04:14:47;12.20;99.90
67769;DHT22;54569;52.018;5.584;2024-02-15T04:17:13;12.30;99.90
67769;DHT22;54569;52.018;5.584;2024-02-15T04:19:46;12.20;99.90
67769;DHT22;54569;52.018;5.584;2024-02-15T04:22:12;12.30;99.90
67769;DHT22;54569;52.018;5.584;2024-02-15T04:24:38;12.30;99.90
67769;DHT22;54569;52.018;5.584;2024-02-15T04:27:08;12.20;99.90
67769;DHT22;54569;52.018;5.584;2024-02-15T04:29:37;12.30;99.90
67769;DHT22;54569;52.018;5.584;2024-02-15T04:32:07;12.20;99.90
67769;DHT22;54569;52.018;5.584;2024-02-15T04:34:42;12.30;99.90
67769;DHT22;54569;52.018;5.584;2024-02-15T04:37:08;12.20;99.90
67769;DHT22;54569;52.018;5.584;2024-02-15T04:39:37;12.30;99.90
67769;DHT22;54569;52.018;5.584;2024-02-15T04:42:04;12.30;99.90
67769;DHT22;54569;52.018;5.584;2024-02-15T04:44:31;12.30;99.90
67769;DHT22;54569;52.018;5.584;2024-02-15T04:47:01;12.30;99.90
67769;DHT22;54569;52.018;5.584;2024-02-15T04:49:28;12.30;99.90
67769;DHT22;54569;52.018;5.584;2024-02-15T04:51:55;12.40;99.90
67769;DHT22;54569;52.018;5.584;2024-02-15T04:54:23;12.40;99.90
67769;DHT22;54569;52.018;5.584;2024-02-15T04:56:48;12.40;99.90
67769;DHT22;54569;52.018;5.584;2024-02-15T04:59:18;12.40;99.90
67769;DHT22;54569;52.018;5.584;2024-02-15T05:01:45;12.40;99.90
67769;DHT22;54569;52.018;5.584;2024-02-15T05:04:11;12.40;99.90
67769;DHT22;54569;52.018;5.584;2024-02-15T05:06:38;12.40;99.90
67769;DHT22;54569;52.018;5.584;2024-02-15T05:09:04;12.40;99.90
67769;DHT22;54569;52.018;5.584;2024-02-15T05:11:36;12.40;99.90
67769;DHT22;54569;52.018;5.584;2024-02-15T05:14:05;12.40;99.90
67769;DHT22;54569;52.018;5.584;2024-02-15T05:16:35;12.40;99.90
67769;DHT22;54569;52.018;5.584;2024-02-15T05:19:08;12.40;99.90
67769;DHT22;54569;52.018;5.584;2024-02-15T05:21:34;12.40;99.90
67769;DHT22;54569;52.018;5.584;2024-02-15T05:24:00;12.40;99.90
67769;DHT22;54569;52.018;5.584;2024-02-15T05:26:26;12.40;99.90
67769;DHT22;54569;52.018;5.584;2024-02-15T05:28:52;12.40;99.90
67769;DHT22;54569;52.018;5.584;2024-02-15T05:31:19;12.40;99.90
67769;DHT22;54569;52.018;5.584;2024-02-15T05:33:46;12.40;99.90
67769;DHT22;54569;52.018;5.584;2024-02-15T05:36:17;12.40;99.90
67769;DHT22;54569;52.018;5.584;2024-02-15T05:38:48;12.40;99.90
67769;DHT22;54569;52.018;5.584;2024-02-15T05:41:14;12.40;99.90
67769;DHT22;54569;52.018;5.584;2024-02-15T05:43:40;12.40;99.90
67769;DHT22;54569;52.018;5.584;2024-02-15T05:46:09;12.40;99.90
67769;DHT22;54569;52.018;5.584;2024-02-15T05:48:36;12.40;99.90
67769;DHT22;54569;52.018;5.584;2024-02-15T05:51:11;12.40;99.90
67769;DHT22;54569;52.018;5.584;2024-02-15T05:53:37;12.40;99.90
67769;DHT22;54569;52.018;5.584;2024-02-15T05:56:07;12.30;99.90
67769;DHT22;54569;52.018;5.584;2024-02-15T05:58:34;12.40;99.90
67769;DHT22;54569;52.018;5.584;2024-02-15T06:01:02;12.30;99.90
67769;DHT22;54569;52.018;5.584;2024-02-15T06:03:28;12.30;99.90
67769;DHT22;54569;52.018;5.584;2024-02-15T06:05:55;12.20;99.90
67769;DHT22;54569;52.018;5.584;2024-02-15T06:08:28;12.30;99.90
67769;DHT22;54569;52.018;5.584;2024-02-15T06:10:57;12.30;99.90
67769;DHT22;54569;52.018;5.584;2024-02-15T06:13:23;12.30;99.90
67769;DHT22;54569;52.018;5.584;2024-02-15T06:15:50;12.30;99.90
67769;DHT22;54569;52.018;5.584;2024-02-15T06:18:19;12.30;99.90
67769;DHT22;54569;52.018;5.584;2024-02-15T06:20:50;12.30;99.90
67769;DHT22;54569;52.018;5.584;2024-02-15T06:23:26;12.30;99.90
67769;DHT22;54569;52.018;5.584;2024-02-15T06:25:56;12.30;99.90
67769;DHT22;54569;52.018;5.584;2024-02-15T06:28:26;12.30;99.90
67769;DHT22;54569;52.018;5.584;2024-02-15T06:31:11;12.30;99.90
67769;DHT22;54569;52.018;5.584;2024-02-15T06:33:56;12.30;99.90
67769;DHT22;54569;52.018;5.584;2024-02-15T06:36:45;12.40;99.90
67769;DHT22;54569;52.018;5.584;2024-02-15T06:39:30;12.40;99.90
67769;DHT22;54569;52.018;5.584;2024-02-15T06:42:12;12.40;99.90
67769;DHT22;54569;52.018;5.584;2024-02-15T06:44:40;12.40;99.90
67769;DHT22;54569;52.018;5.584;2024-02-15T06:47:06;12.40;99.90
67769;DHT22;54569;52.018;5.584;2024-02-15T06:49:32;12.40;99.90
67769;DHT22;54569;52.018;5.584;2024-02-15T06:51:59;12.40;99.90
67769;DHT22;54569;52.018;5.584;2024-02-15T06:54:27;12.40;99.90
67769;DHT22;54569;52.018;5.584;2024-02-15T06:56:53;12.40;99.90
67769;DHT22;54569;52.018;5.584;2024-02-15T06:59:20;12.40;99.90
67769;DHT22;54569;52.018;5.584;2024-02-15T07:01:50;12.40;99.90
67769;DHT22;54569;52.018;5.584;2024-02-15T07:04:18;12.40;99.90
67769;DHT22;54569;52.018;5.584;2024-02-15T07:06:44;12.40;99.90
67769;DHT22;54569;52.018;5.584;2024-02-15T07:09:13;12.40;99.90
67769;DHT22;54569;52.018;5.584;2024-02-15T07:11:41;12.40;99.90
67769;DHT22;54569;52.018;5.584;2024-02-15T07:14:07;12.50;99.90
67769;DHT22;54569;52.018;5.584;2024-02-15T07:16:34;12.50;99.90
67769;DHT22;54569;52.018;5.584;2024-02-15T07:19:01;12.50;99.90
67769;DHT22;54569;52.018;5.584;2024-02-15T07:21:26;12.50;99.90
67769;DHT22;54569;52.018;5.584;2024-02-15T07:23:56;12.50;99.90
67769;DHT22;54569;52.018;5.584;2024-02-15T07:26:23;12.50;99.90
67769;DHT22;54569;52.018;5.584;2024-02-15T07:28:54;12.50;99.90
67769;DHT22;54569;52.018;5.584;2024-02-15T07:31:27;12.50;99.90
67769;DHT22;54569;52.018;5.584;2024-02-15T07:33:53;12.50;99.90
67769;DHT22;54569;52.018;5.584;2024-02-15T07:36:22;12.50;99.90
67769;DHT22;54569;52.018;5.584;2024-02-15T07:38:52;12.50;99.90
67769;DHT22;54569;52.018;5.584;2024-02-15T07:41:26;12.50;99.90
67769;DHT22;54569;52.018;5.584;2024-02-15T07:43:53;12.50;99.90
67769;DHT22;54569;52.018;5.584;2024-02-15T07:46:21;12.50;99.90
67769;DHT22;54569;52.018;5.584;2024-02-15T07:48:47;12.50;99.90
67769;DHT22;54569;52.018;5.584;2024-02-15T07:51:14;12.50;99.90
67769;DHT22;54569;52.018;5.584;2024-02-15T07:53:41;12.60;99.90
67769;DHT22;54569;52.018;5.584;2024-02-15T07:56:08;12.60;99.90
67769;DHT22;54569;52.018;5.584;2024-02-15T07:58:48;12.60;99.90
67769;DHT22;54569;52.018;5.584;2024-02-15T08:01:14;12.60;99.90
67769;DHT22;54569;52.018;5.584;2024-02-15T08:03:41;12.60;99.90
67769;DHT22;54569;52.018;5.584;2024-02-15T08:06:15;12.50;99.90
67769;DHT22;54569;52.018;5.584;2024-02-15T08:08:42;12.60;99.90
67769;DHT22;54569;52.018;5.584;2024-02-15T08:11:12;12.60;99.90
67769;DHT22;54569;52.018;5.584;2024-02-15T08:13:51;12.60;99.90
67769;DHT22;54569;52.018;5.584;2024-02-15T08:16:22;12.60;99.90
67769;DHT22;54569;52.018;5.584;2024-02-15T08:18:49;12.60;99.90
67769;DHT22;54569;52.018;5.584;2024-02-15T08:21:18;12.60;99.90
67769;DHT22;54569;52.018;5.584;2024-02-15T08:23:46;12.60;99.90
67769;DHT22;54569;52.018;5.584;2024-02-15T08:26:12;12.50;99.90
67769;DHT22;54569;52.018;5.584;2024-02-15T08:28:38;12.60;99.90
67769;DHT22;54569;52.018;5.584;2024-02-15T08:31:04;12.60;99.90
67769;DHT22;54569;52.018;5.584;2024-02-15T08:33:30;12.60;99.90
67769;DHT22;54569;52.018;5.584;2024-02-15T08:35:56;12.60;99.90
67769;DHT22;54569;52.018;5.584;2024-02-15T08:38:25;12.60;99.90
67769;DHT22;54569;52.018;5.584;2024-02-15T08:40:50;12.60;99.90
67769;DHT22;54569;52.018;5.584;2024-02-15T08:43:17;12.50;99.90
67769;DHT22;54569;52.018;5.584;2024-02-15T08:45:43;12.50;99.90
67769;DHT22;54569;52.018;5.584;2024-02-15T08:48:09;12.50;99.90
67769;DHT22;54569;52.018;5.584;2024-02-15T08:50:35;12.50;99.90
67769;DHT22;54569;52.018;5.584;2024-02-15T08:53:01;12.50;99.90
67769;DHT22;54569;52.018;5.584;2024-02-15T08:55:31;12.50;99.90
67769;DHT22;54569;52.018;5.584;2024-02-15T08:57:57;12.50;99.90
67769;DHT22;54569;52.018;5.584;2024-02-15T09:00:25;12.60;99.90
67769;DHT22;54569;52.018;5.584;2024-02-15T09:02:52;12.50;99.90
67769;DHT22;54569;52.018;5.584;2024-02-15T09:05:19;12.50;99.90
67769;DHT22;54569;52.018;5.584;2024-02-15T09:07:45;12.60;99.90
67769;DHT22;54569;52.018;5.584;2024-02-15T09:10:14;12.60;99.90
67769;DHT22;54569;52.018;5.584;2024-02-15T09:12:43;12.60;99.90
67769;DHT22;54569;52.018;5.584;2024-02-15T09:15:10;12.60;99.90
67769;DHT22;54569;52.018;5.584;2024-02-15T09:17:36;12.60;99.90
67769;DHT22;54569;52.018;5.584;2024-02-15T09:20:09;12.60;99.90
67769;DHT22;54569;52.018;5.584;2024-02-15T09:22:50;12.60;99.90
67769;DHT22;54569;52.018;5.584;2024-02-15T09:25:20;12.60;99.90
67769;DHT22;54569;52.018;5.584;2024-02-15T09:27:46;12.60;99.90
67769;DHT22;54569;52.018;5.584;2024-02-15T09:30:12;12.60;99.90
67769;DHT22;54569;52.018;5.584;2024-02-15T09:32:39;12.60;99.90
67769;DHT22;54569;52.018;5.584;2024-02-15T09:35:06;12.60;99.90
67769;DHT22;54569;52.018;5.584;2024-02-15T09:37:35;12.60;99.90
67769;DHT22;54569;52.018;5.584;2024-02-15T09:40:02;12.60;99.90
67769;DHT22;54569;52.018;5.584;2024-02-15T09:42:33;12.70;99.90
67769;DHT22;54569;52.018;5.584;2024-02-15T09:45:02;12.70;99.90
67769;DHT22;54569;52.018;5.584;2024-02-15T09:47:37;12.70;99.90
67769;DHT22;54569;52.018;5.584;2024-02-15T09:50:11;12.70;99.90
67769;DHT22;54569;52.018;5.584;2024-02-15T09:52:43;12.70;99.90
67769;DHT22;54569;52.018;5.584;2024-02-15T09:55:11;12.80;99.90
67769;DHT22;54569;52.018;5.584;2024-02-15T09:57:46;12.80;99.90
67769;DHT22;54569;52.018;5.584;2024-02-15T10:00:12;12.80;99.90
67769;DHT22;54569;52.018;5.584;2024-02-15T10:02:43;12.80;99.90
67769;DHT22;54569;52.018;5.584;2024-02-15T10:05:12;12.80;99.90
67769;DHT22;54569;52.018;5.584;2024-02-15T10:07:42;12.80;99.90
67769;DHT22;54569;52.018;5.584;2024-02-15T10:10:22;12.80;99.90
67769;DHT22;54569;52.018;5.584;2024-02-15T10:12:48;12.90;99.90
67769;DHT22;54569;52.018;5.584;2024-02-15T10:15:37;12.90;99.90
67769;DHT22;54569;52.018;5.584;2024-02-15T10:18:04;12.90;99.90
67769;DHT22;54569;52.018;5.584;2024-02-15T10:20:31;12.90;99.90
67769;DHT22;54569;52.018;5.584;2024-02-15T10:25:28;12.90;99.90
67769;DHT22;54569;52.018;5.584;2024-02-15T10:28:20;12.90;99.90
67769;DHT22;54569;52.018;5.584;2024-02-15T10:30:45;13.00;99.90
67769;DHT22;54569;52.018;5.584;2024-02-15T10:33:26;13.00;99.90
67769;DHT22;54569;52.018;5.584;2024-02-15T10:36:08;13.00;99.90
67769;DHT22;54569;52.018;5.584;2024-02-15T10:38:34;13.10;99.90
67769;DHT22;54569;52.018;5.584;2024-02-15T10:41:07;13.10;99.90
67769;DHT22;54569;52.018;5.584;2024-02-15T10:43:37;13.10;99.90
67769;DHT22;54569;52.018;5.584;2024-02-15T10:46:04;13.10;99.90
67769;DHT22;54569;52.018;5.584;2024-02-15T10:48:30;13.10;99.90
67769;DHT22;54569;52.018;5.584;2024-02-15T10:50:59;13.20;99.90
67769;DHT22;54569;52.018;5.584;2024-02-15T10:53:30;13.20;99.90
67769;DHT22;54569;52.018;5.584;2024-02-15T10:56:14;13.20;99.90
67769;DHT22;54569;52.018;5.584;2024-02-15T10:59:08;13.30;99.90
67769;DHT22;54569;52.018;5.584;2024-02-15T11:01:36;13.30;99.90
67769;DHT22;54569;52.018;5.584;2024-02-15T11:04:07;13.40;99.90
67769;DHT22;54569;52.018;5.584;2024-02-15T11:06:38;13.50;99.90
67769;DHT22;54569;52.018;5.584;2024-02-15T11:09:08;13.50;99.90
67769;DHT22;54569;52.018;5.584;2024-02-15T11:11:34;13.50;99.90
67769;DHT22;54569;52.018;5.584;2024-02-15T11:16:48;13.60;99.90
67769;DHT22;54569;52.018;5.584;2024-02-15T11:22:01;13.70;99.90
67769;DHT22;54569;52.018;5.584;2024-02-15T11:24:31;13.70;99.90
67769;DHT22;54569;52.018;5.584;2024-02-15T11:27:07;13.70;99.90
67769;DHT22;54569;52.018;5.584;2024-02-15T11:32:45;13.90;99.90
67769;DHT22;54569;52.018;5.584;2024-02-15T11:35:22;13.90;99.90
67769;DHT22;54569;52.018;5.584;2024-02-15T11:40:27;14.10;99.90
67769;DHT22;54569;52.018;5.584;2024-02-15T11:43:00;14.20;99.90
67769;DHT22;54569;52.018;5.584;2024-02-15T11:45:29;14.20;99.90
67769;DHT22;54569;52.018;5.584;2024-02-15T11:48:03;14.30;99.90
67769;DHT22;54569;52.018;5.584;2024-02-15T11:50:36;14.30;99.90
67769;DHT22;54569;52.018;5.584;2024-02-15T11:53:03;14.30;99.90
67769;DHT22;54569;52.018;5.584;2024-02-15T11:55:36;14.30;99.90
67769;DHT22;54569;52.018;5.584;2024-02-15T11:58:04;14.40;99.90
67769;DHT22;54569;52.018;5.584;2024-02-15T12:00:39;14.40;99.90
67769;DHT22;54569;52.018;5.584;2024-02-15T12:03:24;14.50;99.90
67769;DHT22;54569;52.018;5.584;2024-02-15T12:06:09;14.60;99.90
67769;DHT22;54569;52.018;5.584;2024-02-15T12:08:54;14.80;99.90
67769;DHT22;54569;52.018;5.584;2024-02-15T12:11:39;15.00;99.90
67769;DHT22;54569;52.018;5.584;2024-02-15T12:14:24;15.10;99.90
67769;DHT22;54569;52.018;5.584;2024-02-15T12:17:11;15.20;99.90
67769;DHT22;54569;52.018;5.584;2024-02-15T12:19:57;15.40;99.90
67769;DHT22;54569;52.018;5.584;2024-02-15T12:22:30;15.40;99.90
67769;DHT22;54569;52.018;5.584;2024-02-15T12:24:57;15.50;99.90
67769;DHT22;54569;52.018;5.584;2024-02-15T12:27:24;15.60;99.90
67769;DHT22;54569;52.018;5.584;2024-02-15T12:29:55;15.70;99.90
67769;DHT22;54569;52.018;5.584;2024-02-15T12:32:29;15.80;99.90
67769;DHT22;54569;52.018;5.584;2024-02-15T12:35:14;15.90;99.90
67769;DHT22;54569;52.018;5.584;2024-02-15T12:37:49;16.00;99.90
67769;DHT22;54569;52.018;5.584;2024-02-15T12:40:37;16.10;99.90
67769;DHT22;54569;52.018;5.584;2024-02-15T12:43:07;16.20;99.90
67769;DHT22;54569;52.018;5.584;2024-02-15T12:45:41;16.20;99.90
67769;DHT22;54569;52.018;5.584;2024-02-15T12:48:08;16.20;99.90
67769;DHT22;54569;52.018;5.584;2024-02-15T12:50:35;16.20;99.90
67769;DHT22;54569;52.018;5.584;2024-02-15T12:53:01;16.30;99.90
67769;DHT22;54569;52.018;5.584;2024-02-15T12:55:29;16.30;99.90
67769;DHT22;54569;52.018;5.584;2024-02-15T12:57:57;16.30;99.90
67769;DHT22;54569;52.018;5.584;2024-02-15T13:00:27;16.30;99.90
67769;DHT22;54569;52.018;5.584;2024-02-15T13:02:59;16.30;99.90
67769;DHT22;54569;52.018;5.584;2024-02-15T13:05:26;16.30;99.90
67769;DHT22;54569;52.018;5.584;2024-02-15T13:07:55;16.30;99.90
67769;DHT22;54569;52.018;5.584;2024-02-15T13:10:22;16.30;99.90
67769;DHT22;54569;52.018;5.584;2024-02-15T13:12:48;16.30;99.90
67769;DHT22;54569;52.018;5.584;2024-02-15T13:15:15;16.20;99.90
67769;DHT22;54569;52.018;5.584;2024-02-15T13:17:50;16.20;99.90
67769;DHT22;54569;52.018;5.584;2024-02-15T13:20:22;16.20;99.90
67769;DHT22;54569;52.018;5.584;2024-02-15T13:23:02;16.20;99.90
67769;DHT22;54569;52.018;5.584;2024-02-15T13:25:34;16.20;99.90
67769;DHT22;54569;52.018;5.584;2024-02-15T13:28:02;16.30;99.90
67769;DHT22;54569;52.018;5.584;2024-02-15T13:30:29;16.50;99.90
67769;DHT22;54569;52.018;5.584;2024-02-15T13:32:55;16.60;99.90
67769;DHT22;54569;52.018;5.584;2024-02-15T13:35:22;16.80;99.90
67769;DHT22;54569;52.018;5.584;2024-02-15T13:37:53;16.90;99.90
67769;DHT22;54569;52.018;5.584;2024-02-15T13:40:20;16.80;99.90
67769;DHT22;54569;52.018;5.584;2024-02-15T13:42:50;16.80;99.90
67769;DHT22;54569;52.018;5.584;2024-02-15T13:45:31;16.80;99.90
67769;DHT22;54569;52.018;5.584;2024-02-15T13:48:03;16.70;99.90
67769;DHT22;54569;52.018;5.584;2024-02-15T13:50:31;16.70;99.90
67769;DHT22;54569;52.018;5.584;2024-02-15T13:52:57;16.80;99.90
67769;DHT22;54569;52.018;5.584;2024-02-15T13:55:26;16.80;99.90
67769;DHT22;54569;52.018;5.584;2024-02-15T13:57:52;16.80;99.90
67769;DHT22;54569;52.018;5.584;2024-02-15T14:00:19;16.80;99.90
67769;DHT22;54569;52.018;5.584;2024-02-15T14:02:49;16.90;99.90
67769;DHT22;54569;52.018;5.584;2024-02-15T14:05:16;17.00;99.90
67769;DHT22;54569;52.018;5.584;2024-02-15T14:07:51;17.00;99.90
67769;DHT22;54569;52.018;5.584;2024-02-15T14:10:21;17.00;99.90
67769;DHT22;54569;52.018;5.584;2024-02-15T14:12:51;16.90;99.90
67769;DHT22;54569;52.018;5.584;2024-02-15T14:15:21;17.00;99.90
67769;DHT22;54569;52.018;5.584;2024-02-15T14:17:47;16.90;99.90
67769;DHT22;54569;52.018;5.584;2024-02-15T14:20:13;16.80;99.90
67769;DHT22;54569;52.018;5.584;2024-02-15T14:22:40;16.70;99.90
67769;DHT22;54569;52.018;5.584;2024-02-15T14:25:07;16.60;99.90
67769;DHT22;54569;52.018;5.584;2024-02-15T14:27:33;16.60;99.90
67769;DHT22;54569;52.018;5.584;2024-02-15T14:29:59;16.50;99.90
67769;DHT22;54569;52.018;5.584;2024-02-15T14:32:44;16.50;99.90
67769;DHT22;54569;52.018;5.584;2024-02-15T14:35:26;16.50;99.90
67769;DHT22;54569;52.018;5.584;2024-02-15T14:37:54;16.40;99.90
67769;DHT22;54569;52.018;5.584;2024-02-15T14:40:23;16.40;99.90
67769;DHT22;54569;52.018;5.584;2024-02-15T14:42:49;16.30;99.90
67769;DHT22;54569;52.018;5.584;2024-02-15T14:45:15;16.30;99.90
67769;DHT22;54569;52.018;5.584;2024-02-15T14:47:41;16.20;99.90
67769;DHT22;54569;52.018;5.584;2024-02-15T14:50:09;16.20;99.90
67769;DHT22;54569;52.018;5.584;2024-02-15T14:52:35;16.10;99.90
67769;DHT22;54569;52.018;5.584;2024-02-15T14:55:05;16.10;99.90
67769;DHT22;54569;52.018;5.584;2024-02-15T14:57:33;16.10;99.90
67769;DHT22;54569;52.018;5.584;2024-02-15T15:00:00;16.00;99.90
67769;DHT22;54569;52.018;5.584;2024-02-15T15:02:26;16.00;99.90
67769;DHT22;54569;52.018;5.584;2024-02-15T15:04:52;16.00;99.90
67769;DHT22;54569;52.018;5.584;2024-02-15T15:07:44;15.90;99.90
67769;DHT22;54569;52.018;5.584;2024-02-15T15:10:29;15.90;99.90
67769;DHT22;54569;52.018;5.584;2024-02-15T15:13:13;15.80;99.90
67769;DHT22;54569;52.018;5.584;2024-02-15T15:15:39;15.80;99.90
67769;DHT22;54569;52.018;5.584;2024-02-15T15:18:06;15.80;99.90
67769;DHT22;54569;52.018;5.584;2024-02-15T15:20:33;15.70;99.90
67769;DHT22;54569;52.018;5.584;2024-02-15T15:23:00;15.70;99.90
67769;DHT22;54569;52.018;5.584;2024-02-15T15:25:26;15.70;99.90
67769;DHT22;54569;52.018;5.584;2024-02-15T15:27:54;15.70;99.90
67769;DHT22;54569;52.018;5.584;2024-02-15T15:30:24;15.70;99.90
67769;DHT22;54569;52.018;5.584;2024-02-15T15:32:49;15.60;99.90
67769;DHT22;54569;52.018;5.584;2024-02-15T15:35:16;15.60;99.90
67769;DHT22;54569;52.018;5.584;2024-02-15T15:37:46;15.50;99.90
67769;DHT22;54569;52.018;5.584;2024-02-15T15:40:12;15.50;99.90
67769;DHT22;54569;52.018;5.584;2024-02-15T15:42:42;15.50;99.90
67769;DHT22;54569;52.018;5.584;2024-02-15T15:45:09;15.50;99.90
67769;DHT22;54569;52.018;5.584;2024-02-15T15:47:36;15.50;99.90
67769;DHT22;54569;52.018;5.584;2024-02-15T15:50:03;15.40;99.90
67769;DHT22;54569;52.018;5.584;2024-02-15T15:52:32;15.50;99.90
67769;DHT22;54569;52.018;5.584;2024-02-15T15:54:59;15.40;99.90
67769;DHT22;54569;52.018;5.584;2024-02-15T15:57:25;15.40;99.90